WXM80 ListenWXM80 Stop

You find our weather info also at:

UK Metoffice

WeatherCloud

Weather Underground

Northeastern Weather Network

AWEKAS

Citizen Weather Observer Program (CWOP)

HAMweather, WeatherForYou, PWS Weather


Weather Underground History page Text

Daily Summary for December 1, 2017 Units:  Both    English   Metric
« Previous Day
Next Day »
Daily Weekly Monthly Yearly Custom
  High: Low: Average:
Temperature: 52.3 °F /  11.3 °C 42.3 °F /  5.7 °C 47.8 °F /  8.8 °C
Dew Point: 48.4 °F /  9.1 °C 33.2 °F /  0.7 °C 40.1 °F /  4.5 °C
Humidity: 92 % 58 % 75 %
Wind Speed: 10.8 mph /  17.4 km/h - 4.2 mph /  6.8 km/h
Wind Gust: 20.0 mph /  32.2 km/h - -
Wind:- - South
Pressure: 30.31 in /  1026.3 hPa 30.01 in /  1016.1 hPa -
Precipitation: 0.00 in /  0 mm    
Historical Graphs
 
 
Tabular Data for December 1, 2017
Time Temperature Dew Point Pressure Wind Wind Speed Wind Gust Humidity Rainfall Rate (Hourly)
00:01 50.6 °F /  10.3 °C 48.4 °F /  9.1 °C 30.03 in /  1016.8 hPa Calm     92 % 0.00 in /  0 mm
00:11 50.6 °F /  10.3 °C 48.4 °F /  9.1 °C 30.02 in /  1016.5 hPa Calm     92 % 0.00 in /  0 mm
00:16 50.5 °F /  10.3 °C 48.3 °F /  9.1 °C 30.02 in /  1016.5 hPa Calm     92 % 0.00 in /  0 mm
00:26 50.4 °F /  10.2 °C 48.2 °F /  9 °C 30.02 in /  1016.5 hPa WSW 2.1 mph /  3.4 km/h 3.5 mph /  5.6 km/h 92 % 0.00 in /  0 mm
00:36 50.4 °F /  10.2 °C 48.2 °F /  9 °C 30.02 in /  1016.5 hPa SSW 0.2 mph /  0.3 km/h 3.5 mph /  5.6 km/h 92 % 0.00 in /  0 mm
00:41 50.3 °F /  10.2 °C 48.1 °F /  8.9 °C 30.01 in /  1016.1 hPa SSW 0.3 mph /  0.5 km/h 2.3 mph /  3.7 km/h 92 % 0.00 in /  0 mm
00:46 50.3 °F /  10.2 °C 48.1 °F /  8.9 °C 30.01 in /  1016.1 hPa SSW 0.7 mph /  1.1 km/h 2.3 mph /  3.7 km/h 92 % 0.00 in /  0 mm
00:56 50.2 °F /  10.1 °C 48.0 °F /  8.9 °C 30.01 in /  1016.1 hPa SSW 0.2 mph /  0.3 km/h 3.5 mph /  5.6 km/h 92 % 0.00 in /  0 mm
01:06 50.0 °F /  10 °C 47.8 °F /  8.8 °C 30.01 in /  1016.1 hPa SSW 0.7 mph /  1.1 km/h 3.5 mph /  5.6 km/h 92 % 0.00 in /  0 mm
01:11 50.0 °F /  10 °C 47.8 °F /  8.8 °C 30.01 in /  1016.1 hPa SSW 0.7 mph /  1.1 km/h 3.5 mph /  5.6 km/h 92 % 0.00 in /  0 mm
01:16 49.9 °F /  9.9 °C 47.7 °F /  8.7 °C 30.02 in /  1016.5 hPa SW 1.9 mph /  3.1 km/h 4.0 mph /  6.4 km/h 92 % 0.00 in /  0 mm
01:26 49.8 °F /  9.9 °C 47.6 °F /  8.7 °C 30.01 in /  1016.1 hPa Calm     92 % 0.00 in /  0 mm
01:31 49.7 °F /  9.8 °C 47.5 °F /  8.6 °C 30.01 in /  1016.1 hPa SW 0.3 mph /  0.5 km/h 1.2 mph /  1.9 km/h 92 % 0.00 in /  0 mm
01:41 49.7 °F /  9.8 °C 47.5 °F /  8.6 °C 30.01 in /  1016.1 hPa SSW 1.1 mph /  1.8 km/h 3.5 mph /  5.6 km/h 92 % 0.00 in /  0 mm
01:46 49.6 °F /  9.8 °C 47.4 °F /  8.6 °C 30.01 in /  1016.1 hPa SSW 0.1 mph /  0.2 km/h 2.3 mph /  3.7 km/h 92 % 0.00 in /  0 mm
01:51 49.6 °F /  9.8 °C 47.4 °F /  8.6 °C 30.01 in /  1016.1 hPa SW 0.7 mph /  1.1 km/h 2.0 mph /  3.2 km/h 92 % 0.00 in /  0 mm
01:56 49.6 °F /  9.8 °C 47.4 °F /  8.6 °C 30.02 in /  1016.5 hPa WSW 1.4 mph /  2.3 km/h 2.3 mph /  3.7 km/h 92 % 0.00 in /  0 mm
02:01 49.6 °F /  9.8 °C 47.4 °F /  8.6 °C 30.01 in /  1016.1 hPa WSW 0.1 mph /  0.2 km/h 1.2 mph /  1.9 km/h 92 % 0.00 in /  0 mm
02:06 49.5 °F /  9.7 °C 47.3 °F /  8.5 °C 30.01 in /  1016.1 hPa WSW 1.5 mph /  2.4 km/h 2.3 mph /  3.7 km/h 92 % 0.00 in /  0 mm
02:11 49.5 °F /  9.7 °C 47.3 °F /  8.5 °C 30.02 in /  1016.5 hPa West 1.1 mph /  1.8 km/h 3.5 mph /  5.6 km/h 92 % 0.00 in /  0 mm
02:16 49.6 °F /  9.8 °C 47.4 °F /  8.6 °C 30.01 in /  1016.1 hPa WSW 1.0 mph /  1.6 km/h 3.5 mph /  5.6 km/h 92 % 0.00 in /  0 mm
02:21 49.6 °F /  9.8 °C 47.4 °F /  8.6 °C 30.01 in /  1016.1 hPa Calm     92 % 0.00 in /  0 mm
02:26 49.6 °F /  9.8 °C 47.4 °F /  8.6 °C 30.02 in /  1016.5 hPa WSW 1.4 mph /  2.3 km/h 3.5 mph /  5.6 km/h 92 % 0.00 in /  0 mm
02:31 49.6 °F /  9.8 °C 47.4 °F /  8.6 °C 30.01 in /  1016.1 hPa WSW 1.8 mph /  2.9 km/h 3.5 mph /  5.6 km/h 92 % 0.00 in /  0 mm
02:36 49.6 °F /  9.8 °C 47.4 °F /  8.6 °C 30.02 in /  1016.5 hPa WSW 1.4 mph /  2.3 km/h 3.5 mph /  5.6 km/h 92 % 0.00 in /  0 mm
02:42 49.6 °F /  9.8 °C 47.4 °F /  8.6 °C 30.01 in /  1016.1 hPa WSW 0.2 mph /  0.3 km/h 3.5 mph /  5.6 km/h 92 % 0.00 in /  0 mm
02:47 49.7 °F /  9.8 °C 47.5 °F /  8.6 °C 30.02 in /  1016.5 hPa WSW 1.2 mph /  1.9 km/h 5.0 mph /  8 km/h 92 % 0.00 in /  0 mm
02:52 49.7 °F /  9.8 °C 47.5 °F /  8.6 °C 30.01 in /  1016.1 hPa WSW 3.4 mph /  5.5 km/h 4.6 mph /  7.4 km/h 92 % 0.00 in /  0 mm
02:57 49.7 °F /  9.8 °C 47.5 °F /  8.6 °C 30.01 in /  1016.1 hPa Calm   4.6 mph /  7.4 km/h 92 % 0.00 in /  0 mm
03:02 49.7 °F /  9.8 °C 47.5 °F /  8.6 °C 30.02 in /  1016.5 hPa WSW 1.8 mph /  2.9 km/h 5.0 mph /  8 km/h 92 % 0.00 in /  0 mm
03:07 49.7 °F /  9.8 °C 47.5 °F /  8.6 °C 30.02 in /  1016.5 hPa West 1.4 mph /  2.3 km/h 3.5 mph /  5.6 km/h 92 % 0.00 in /  0 mm
03:12 49.7 °F /  9.8 °C 47.5 °F /  8.6 °C 30.02 in /  1016.5 hPa SW 1.6 mph /  2.6 km/h 3.5 mph /  5.6 km/h 92 % 0.00 in /  0 mm
03:17 49.7 °F /  9.8 °C 47.5 °F /  8.6 °C 30.01 in /  1016.1 hPa Calm     92 % 0.00 in /  0 mm
03:22 49.7 °F /  9.8 °C 47.5 °F /  8.6 °C 30.02 in /  1016.5 hPa West 0.1 mph /  0.2 km/h 1.2 mph /  1.9 km/h 92 % 0.00 in /  0 mm
03:27 49.6 °F /  9.8 °C 47.4 °F /  8.6 °C 30.02 in /  1016.5 hPa West 0.1 mph /  0.2 km/h 3.5 mph /  5.6 km/h 92 % 0.00 in /  0 mm
03:32 49.6 °F /  9.8 °C 47.4 °F /  8.6 °C 30.02 in /  1016.5 hPa SW 2.9 mph /  4.7 km/h 4.6 mph /  7.4 km/h 92 % 0.00 in /  0 mm
03:42 49.6 °F /  9.8 °C 47.4 °F /  8.6 °C 30.02 in /  1016.5 hPa WNW 0.3 mph /  0.5 km/h 1.2 mph /  1.9 km/h 92 % 0.00 in /  0 mm
03:47 49.5 °F /  9.7 °C 47.3 °F /  8.5 °C 30.02 in /  1016.5 hPa WNW 0.3 mph /  0.5 km/h 3.5 mph /  5.6 km/h 92 % 0.00 in /  0 mm
03:52 49.4 °F /  9.7 °C 46.9 °F /  8.3 °C 30.02 in /  1016.5 hPa Calm     91 % 0.00 in /  0 mm
03:57 49.3 °F /  9.6 °C 46.8 °F /  8.2 °C 30.03 in /  1016.8 hPa WNW 0.9 mph /  1.4 km/h 2.3 mph /  3.7 km/h 91 % 0.00 in /  0 mm
04:02 49.1 °F /  9.5 °C 46.6 °F /  8.1 °C 30.03 in /  1016.8 hPa West 0.1 mph /  0.2 km/h 1.2 mph /  1.9 km/h 91 % 0.00 in /  0 mm
04:07 49.0 °F /  9.4 °C 46.5 °F /  8.1 °C 30.02 in /  1016.5 hPa WNW 0.9 mph /  1.4 km/h 3.0 mph /  4.8 km/h 91 % 0.00 in /  0 mm
04:12 48.8 °F /  9.3 °C 46.3 °F /  7.9 °C 30.02 in /  1016.5 hPa WNW 2.8 mph /  4.5 km/h 6.0 mph /  9.7 km/h 91 % 0.00 in /  0 mm
04:17 48.6 °F /  9.2 °C 46.1 °F /  7.8 °C 30.03 in /  1016.8 hPa WNW 0.9 mph /  1.4 km/h 4.0 mph /  6.4 km/h 91 % 0.00 in /  0 mm
04:22 48.4 °F /  9.1 °C 45.6 °F /  7.6 °C 30.03 in /  1016.8 hPa West 3.2 mph /  5.1 km/h 6.0 mph /  9.7 km/h 90 % 0.00 in /  0 mm
04:27 48.2 °F /  9 °C 45.4 °F /  7.4 °C 30.03 in /  1016.8 hPa NW 2.9 mph /  4.7 km/h 4.6 mph /  7.4 km/h 90 % 0.00 in /  0 mm
04:42 47.9 °F /  8.8 °C 45.1 °F /  7.3 °C 30.03 in /  1016.8 hPa WSW 0.2 mph /  0.3 km/h 1.0 mph /  1.6 km/h 90 % 0.00 in /  0 mm
04:47 47.8 °F /  8.8 °C 45.0 °F /  7.2 °C 30.04 in /  1017.2 hPa WSW 2.8 mph /  4.5 km/h 4.6 mph /  7.4 km/h 90 % 0.00 in /  0 mm
04:52 47.7 °F /  8.7 °C 45.2 °F /  7.3 °C 30.04 in /  1017.2 hPa West 2.7 mph /  4.3 km/h 4.0 mph /  6.4 km/h 91 % 0.00 in /  0 mm
04:58 47.6 °F /  8.7 °C 44.8 °F /  7.1 °C 30.04 in /  1017.2 hPa West 1.9 mph /  3.1 km/h 3.5 mph /  5.6 km/h 90 % 0.00 in /  0 mm
05:03 47.5 °F /  8.6 °C 45.0 °F /  7.2 °C 30.04 in /  1017.2 hPa WNW 3.4 mph /  5.5 km/h 5.0 mph /  8 km/h 91 % 0.00 in /  0 mm
05:08 47.4 °F /  8.6 °C 44.9 °F /  7.2 °C 30.04 in /  1017.2 hPa WNW 5.7 mph /  9.2 km/h 10.4 mph /  16.7 km/h 91 % 0.00 in /  0 mm
05:13 47.4 °F /  8.6 °C 44.9 °F /  7.2 °C 30.05 in /  1017.5 hPa West 3.0 mph /  4.8 km/h 4.6 mph /  7.4 km/h 91 % 0.00 in /  0 mm
05:18 47.3 °F /  8.5 °C 44.8 °F /  7.1 °C 30.05 in /  1017.5 hPa NW 3.0 mph /  4.8 km/h 6.9 mph /  11.1 km/h 91 % 0.00 in /  0 mm
05:23 47.2 °F /  8.4 °C 44.4 °F /  6.9 °C 30.05 in /  1017.5 hPa WSW 1.2 mph /  1.9 km/h 8.1 mph /  13 km/h 90 % 0.00 in /  0 mm
05:28 47.2 °F /  8.4 °C 44.4 °F /  6.9 °C 30.06 in /  1017.8 hPa WNW 4.0 mph /  6.4 km/h 8.1 mph /  13 km/h 90 % 0.00 in /  0 mm
05:33 47.1 °F /  8.4 °C 44.3 °F /  6.8 °C 30.06 in /  1017.8 hPa WNW 7.2 mph /  11.6 km/h 11.5 mph /  18.5 km/h 90 % 0.00 in /  0 mm
05:38 47.0 °F /  8.3 °C 44.2 °F /  6.8 °C 30.06 in /  1017.8 hPa WNW 3.4 mph /  5.5 km/h 9.2 mph /  14.8 km/h 90 % 0.00 in /  0 mm
05:43 46.9 °F /  8.3 °C 44.1 °F /  6.7 °C 30.06 in /  1017.8 hPa WNW 3.8 mph /  6.1 km/h 6.9 mph /  11.1 km/h 90 % 0.00 in /  0 mm
05:53 46.8 °F /  8.2 °C 44.0 °F /  6.7 °C 30.07 in /  1018.2 hPa WNW 1.3 mph /  2.1 km/h 3.5 mph /  5.6 km/h 90 % 0.00 in /  0 mm
06:03 46.6 °F /  8.1 °C 43.5 °F /  6.4 °C 30.07 in /  1018.2 hPa WNW 4.7 mph /  7.6 km/h 9.2 mph /  14.8 km/h 89 % 0.00 in /  0 mm
06:08 46.5 °F /  8.1 °C 43.4 °F /  6.3 °C 30.08 in /  1018.5 hPa NW 2.1 mph /  3.4 km/h 5.0 mph /  8 km/h 89 % 0.00 in /  0 mm
06:18 46.3 °F /  7.9 °C 43.2 °F /  6.2 °C 30.08 in /  1018.5 hPa NW 1.9 mph /  3.1 km/h 5.8 mph /  9.3 km/h 89 % 0.00 in /  0 mm
06:23 46.3 °F /  7.9 °C 43.2 °F /  6.2 °C 30.09 in /  1018.8 hPa NW 3.3 mph /  5.3 km/h 8.1 mph /  13 km/h 89 % 0.00 in /  0 mm
06:28 46.2 °F /  7.9 °C 43.1 °F /  6.2 °C 30.09 in /  1018.8 hPa NW 3.4 mph /  5.5 km/h 6.9 mph /  11.1 km/h 89 % 0.00 in /  0 mm
06:33 46.2 °F /  7.9 °C 43.1 °F /  6.2 °C 30.10 in /  1019.2 hPa NW 0.6 mph /  1 km/h 3.0 mph /  4.8 km/h 89 % 0.00 in /  0 mm
06:38 46.1 °F /  7.8 °C 42.7 °F /  5.9 °C 30.10 in /  1019.2 hPa NW 3.8 mph /  6.1 km/h 9.2 mph /  14.8 km/h 88 % 0.00 in /  0 mm
06:43 46.0 °F /  7.8 °C 42.6 °F /  5.9 °C 30.10 in /  1019.2 hPa NW 1.6 mph /  2.6 km/h 4.6 mph /  7.4 km/h 88 % 0.00 in /  0 mm
06:48 46.0 °F /  7.8 °C 42.3 °F /  5.7 °C 30.10 in /  1019.2 hPa WNW 3.3 mph /  5.3 km/h 8.1 mph /  13 km/h 87 % 0.00 in /  0 mm
06:53 46.0 °F /  7.8 °C 42.3 °F /  5.7 °C 30.10 in /  1019.2 hPa NNW 2.9 mph /  4.7 km/h 5.8 mph /  9.3 km/h 87 % 0.00 in /  0 mm
06:58 45.9 °F /  7.7 °C 42.2 °F /  5.7 °C 30.11 in /  1019.5 hPa WNW 3.3 mph /  5.3 km/h 6.9 mph /  11.1 km/h 87 % 0.00 in /  0 mm
07:03 45.9 °F /  7.7 °C 42.2 °F /  5.7 °C 30.12 in /  1019.9 hPa NNW 4.2 mph /  6.8 km/h 7.0 mph /  11.3 km/h 87 % 0.00 in /  0 mm
07:08 45.8 °F /  7.7 °C 42.2 °F /  5.7 °C 30.12 in /  1019.9 hPa NW 1.5 mph /  2.4 km/h 8.1 mph /  13 km/h 87 % 0.00 in /  0 mm
07:13 45.8 °F /  7.7 °C 42.2 °F /  5.7 °C 30.12 in /  1019.9 hPa NW 3.3 mph /  5.3 km/h 6.9 mph /  11.1 km/h 87 % 0.00 in /  0 mm
07:18 45.7 °F /  7.6 °C 42.1 °F /  5.6 °C 30.12 in /  1019.9 hPa NW 1.0 mph /  1.6 km/h 3.5 mph /  5.6 km/h 87 % 0.00 in /  0 mm
07:24 45.7 °F /  7.6 °C 42.1 °F /  5.6 °C 30.12 in /  1019.9 hPa WNW 2.9 mph /  4.7 km/h 5.8 mph /  9.3 km/h 87 % 0.00 in /  0 mm
07:29 45.6 °F /  7.6 °C 41.7 °F /  5.4 °C 30.13 in /  1020.2 hPa NNW 2.4 mph /  3.9 km/h 3.5 mph /  5.6 km/h 86 % 0.00 in /  0 mm
07:34 45.5 °F /  7.5 °C 41.6 °F /  5.3 °C 30.13 in /  1020.2 hPa North 3.4 mph /  5.5 km/h 5.8 mph /  9.3 km/h 86 % 0.00 in /  0 mm
07:44 45.5 °F /  7.5 °C 41.6 °F /  5.3 °C 30.13 in /  1020.2 hPa NW 2.6 mph /  4.2 km/h 5.8 mph /  9.3 km/h 86 % 0.00 in /  0 mm
07:49 45.5 °F /  7.5 °C 41.6 °F /  5.3 °C 30.13 in /  1020.2 hPa WNW 4.0 mph /  6.4 km/h 5.8 mph /  9.3 km/h 86 % 0.00 in /  0 mm
07:54 45.5 °F /  7.5 °C 41.6 °F /  5.3 °C 30.13 in /  1020.2 hPa NNW 1.8 mph /  2.9 km/h 4.6 mph /  7.4 km/h 86 % 0.00 in /  0 mm
07:59 45.6 °F /  7.6 °C 41.7 °F /  5.4 °C 30.14 in /  1020.5 hPa NW 1.0 mph /  1.6 km/h 3.5 mph /  5.6 km/h 86 % 0.00 in /  0 mm
08:04 45.6 °F /  7.6 °C 41.7 °F /  5.4 °C 30.14 in /  1020.5 hPa NNE 2.2 mph /  3.5 km/h 6.0 mph /  9.7 km/h 86 % 0.00 in /  0 mm
08:09 45.7 °F /  7.6 °C 41.4 °F /  5.2 °C 30.14 in /  1020.5 hPa NW 2.1 mph /  3.4 km/h 4.6 mph /  7.4 km/h 85 % 0.00 in /  0 mm
08:14 45.8 °F /  7.7 °C 41.5 °F /  5.3 °C 30.14 in /  1020.5 hPa NW 2.0 mph /  3.2 km/h 3.5 mph /  5.6 km/h 85 % 0.00 in /  0 mm
08:19 45.9 °F /  7.7 °C 41.6 °F /  5.3 °C 30.14 in /  1020.5 hPa NW 3.1 mph /  5 km/h 5.8 mph /  9.3 km/h 85 % 0.00 in /  0 mm
08:24 46.0 °F /  7.8 °C 41.4 °F /  5.2 °C 30.15 in /  1020.9 hPa NW 3.7 mph /  6 km/h 8.0 mph /  12.9 km/h 84 % 0.00 in /  0 mm
08:35 46.2 °F /  7.9 °C 41.3 °F /  5.2 °C 30.15 in /  1020.9 hPa NNW 3.3 mph /  5.3 km/h 6.9 mph /  11.1 km/h 83 % 0.00 in /  0 mm
08:40 46.3 °F /  7.9 °C 41.4 °F /  5.2 °C 30.16 in /  1021.2 hPa North 3.4 mph /  5.5 km/h 4.6 mph /  7.4 km/h 83 % 0.00 in /  0 mm
08:50 46.5 °F /  8.1 °C 41.6 °F /  5.3 °C 30.16 in /  1021.2 hPa North 1.4 mph /  2.3 km/h 3.5 mph /  5.6 km/h 83 % 0.00 in /  0 mm
08:55 46.6 °F /  8.1 °C 42.0 °F /  5.6 °C 30.16 in /  1021.2 hPa North 0.9 mph /  1.4 km/h 3.5 mph /  5.6 km/h 84 % 0.00 in /  0 mm
09:00 46.8 °F /  8.2 °C 41.9 °F /  5.5 °C 30.16 in /  1021.2 hPa NNW 3.5 mph /  5.6 km/h 5.0 mph /  8 km/h 83 % 0.00 in /  0 mm
09:15 47.6 °F /  8.7 °C 42.4 °F /  5.8 °C 30.16 in /  1021.2 hPa NNW 0.6 mph /  1 km/h 2.3 mph /  3.7 km/h 82 % 0.00 in /  0 mm
09:20 47.9 °F /  8.8 °C 42.3 °F /  5.7 °C 30.16 in /  1021.2 hPa NW 3.5 mph /  5.6 km/h 6.9 mph /  11.1 km/h 81 % 0.00 in /  0 mm
09:25 48.3 °F /  9.1 °C 42.4 °F /  5.8 °C 30.17 in /  1021.6 hPa NW 2.8 mph /  4.5 km/h 6.9 mph /  11.1 km/h 80 % 0.00 in /  0 mm
09:30 48.6 °F /  9.2 °C 42.4 °F /  5.8 °C 30.16 in /  1021.2 hPa NNE 2.9 mph /  4.7 km/h 6.0 mph /  9.7 km/h 79 % 0.00 in /  0 mm
09:40 49.3 °F /  9.6 °C 42.4 °F /  5.8 °C 30.17 in /  1021.6 hPa NNE 2.2 mph /  3.5 km/h 8.1 mph /  13 km/h 77 % 0.00 in /  0 mm
09:45 49.6 °F /  9.8 °C 42.7 °F /  5.9 °C 30.17 in /  1021.6 hPa WNW 1.2 mph /  1.9 km/h 3.5 mph /  5.6 km/h 77 % 0.00 in /  0 mm
09:55 50.3 °F /  10.2 °C 42.3 °F /  5.7 °C 30.17 in /  1021.6 hPa WNW 1.3 mph /  2.1 km/h 5.8 mph /  9.3 km/h 74 % 0.00 in /  0 mm
10:00 50.5 °F /  10.3 °C 42.5 °F /  5.8 °C 30.17 in /  1021.6 hPa NW 2.5 mph /  4 km/h 6.9 mph /  11.1 km/h 74 % 0.00 in /  0 mm
10:06 50.9 °F /  10.5 °C 42.9 °F /  6.1 °C 30.17 in /  1021.6 hPa NNW 5.0 mph /  8 km/h 7.0 mph /  11.3 km/h 74 % 0.00 in /  0 mm
10:11 51.2 °F /  10.7 °C 43.2 °F /  6.2 °C 30.17 in /  1021.6 hPa NNW 3.0 mph /  4.8 km/h 6.0 mph /  9.7 km/h 74 % 0.00 in /  0 mm
10:22 51.8 °F /  11 °C 41.9 °F /  5.5 °C 30.17 in /  1021.6 hPa NNW 3.1 mph /  5 km/h 8.1 mph /  13 km/h 69 % 0.00 in /  0 mm
10:29 52.0 °F /  11.1 °C 41.8 °F /  5.4 °C 30.17 in /  1021.6 hPa NNE 5.5 mph /  8.9 km/h 9.2 mph /  14.8 km/h 68 % 0.00 in /  0 mm
10:34 52.0 °F /  11.1 °C 41.4 °F /  5.2 °C 30.17 in /  1021.6 hPa NE 5.2 mph /  8.4 km/h 7.0 mph /  11.3 km/h 67 % 0.00 in /  0 mm
10:44 52.0 °F /  11.1 °C 39.4 °F /  4.1 °C 30.17 in /  1021.6 hPa NNE 8.4 mph /  13.5 km/h 15.0 mph /  24.1 km/h 62 % 0.00 in /  0 mm
10:49 51.9 °F /  11.1 °C 39.3 °F /  4.1 °C 30.17 in /  1021.6 hPa NNE 5.6 mph /  9 km/h 11.5 mph /  18.5 km/h 62 % 0.00 in /  0 mm
10:59 51.6 °F /  10.9 °C 38.6 °F /  3.7 °C 30.17 in /  1021.6 hPa North 3.8 mph /  6.1 km/h 10.4 mph /  16.7 km/h 61 % 0.00 in /  0 mm
11:15 51.4 °F /  10.8 °C 38.4 °F /  3.6 °C 30.16 in /  1021.2 hPa NNW 4.3 mph /  6.9 km/h 7.0 mph /  11.3 km/h 61 % 0.00 in /  0 mm
11:20 51.4 °F /  10.8 °C 38.8 °F /  3.8 °C 30.16 in /  1021.2 hPa North 4.1 mph /  6.6 km/h 6.9 mph /  11.1 km/h 62 % 0.00 in /  0 mm
11:25 51.5 °F /  10.8 °C 38.9 °F /  3.8 °C 30.16 in /  1021.2 hPa NW 2.6 mph /  4.2 km/h 8.1 mph /  13 km/h 62 % 0.00 in /  0 mm
11:41 51.4 °F /  10.8 °C 38.8 °F /  3.8 °C 30.16 in /  1021.2 hPa NW 4.2 mph /  6.8 km/h 6.0 mph /  9.7 km/h 62 % 0.00 in /  0 mm
11:46 51.4 °F /  10.8 °C 39.2 °F /  4 °C 30.17 in /  1021.6 hPa NNW 4.2 mph /  6.8 km/h 6.9 mph /  11.1 km/h 63 % 0.00 in /  0 mm
11:56 51.9 °F /  11.1 °C 39.7 °F /  4.3 °C 30.17 in /  1021.6 hPa NNW 3.8 mph /  6.1 km/h 8.1 mph /  13 km/h 63 % 0.00 in /  0 mm
12:01 52.0 °F /  11.1 °C 39.4 °F /  4.1 °C 30.17 in /  1021.6 hPa NW 3.1 mph /  5 km/h 5.8 mph /  9.3 km/h 62 % 0.00 in /  0 mm
12:06 52.0 °F /  11.1 °C 39.0 °F /  3.9 °C 30.17 in /  1021.6 hPa North 3.6 mph /  5.8 km/h 8.1 mph /  13 km/h 61 % 0.00 in /  0 mm
12:11 52.2 °F /  11.2 °C 39.6 °F /  4.2 °C 30.17 in /  1021.6 hPa North 4.5 mph /  7.2 km/h 6.9 mph /  11.1 km/h 62 % 0.00 in /  0 mm
12:16 52.3 °F /  11.3 °C 38.8 °F /  3.8 °C 30.17 in /  1021.6 hPa West 6.6 mph /  10.6 km/h 11.5 mph /  18.5 km/h 60 % 0.00 in /  0 mm
12:21 52.2 °F /  11.2 °C 38.7 °F /  3.7 °C 30.17 in /  1021.6 hPa NNW 3.9 mph /  6.3 km/h 7.0 mph /  11.3 km/h 60 % 0.00 in /  0 mm
12:26 52.1 °F /  11.2 °C 39.1 °F /  3.9 °C 30.17 in /  1021.6 hPa North 3.9 mph /  6.3 km/h 10.4 mph /  16.7 km/h 61 % 0.00 in /  0 mm
12:30 52.0 °F /  11.1 °C 39.4 °F /  4.1 °C 30.17 in /  1021.6 hPa North 2.4 mph /  3.9 km/h 6.9 mph /  11.1 km/h 62 % 0.00 in /  0 mm
12:35 52.0 °F /  11.1 °C 38.5 °F /  3.6 °C 30.17 in /  1021.6 hPa North 5.7 mph /  9.2 km/h 10.4 mph /  16.7 km/h 60 % 0.00 in /  0 mm
12:41 51.9 °F /  11.1 °C 38.9 °F /  3.8 °C 30.17 in /  1021.6 hPa NNW 3.0 mph /  4.8 km/h 7.0 mph /  11.3 km/h 61 % 0.00 in /  0 mm
12:46 51.8 °F /  11 °C 39.2 °F /  4 °C 30.17 in /  1021.6 hPa North 3.0 mph /  4.8 km/h 7.0 mph /  11.3 km/h 62 % 0.00 in /  0 mm
12:51 51.7 °F /  10.9 °C 38.7 °F /  3.7 °C 30.17 in /  1021.6 hPa NNW 3.0 mph /  4.8 km/h 10.0 mph /  16.1 km/h 61 % 0.00 in /  0 mm
12:56 51.6 °F /  10.9 °C 39.0 °F /  3.9 °C 30.17 in /  1021.6 hPa NNW 3.0 mph /  4.8 km/h 7.0 mph /  11.3 km/h 62 % 0.00 in /  0 mm
13:01 51.6 °F /  10.9 °C 39.0 °F /  3.9 °C 30.17 in /  1021.6 hPa North 0.6 mph /  1 km/h 3.5 mph /  5.6 km/h 62 % 0.00 in /  0 mm
13:06 51.5 °F /  10.8 °C 38.5 °F /  3.6 °C 30.16 in /  1021.2 hPa NNE 4.0 mph /  6.4 km/h 9.2 mph /  14.8 km/h 61 % 0.00 in /  0 mm
13:11 51.4 °F /  10.8 °C 38.0 °F /  3.3 °C 30.16 in /  1021.2 hPa North 4.8 mph /  7.7 km/h 8.1 mph /  13 km/h 60 % 0.00 in /  0 mm
13:16 51.5 °F /  10.8 °C 38.5 °F /  3.6 °C 30.17 in /  1021.6 hPa NNW 3.7 mph /  6 km/h 9.2 mph /  14.8 km/h 61 % 0.00 in /  0 mm
13:21 51.5 °F /  10.8 °C 38.5 °F /  3.6 °C 30.16 in /  1021.2 hPa NNE 6.2 mph /  10 km/h 10.4 mph /  16.7 km/h 61 % 0.00 in /  0 mm
13:26 51.7 °F /  10.9 °C 38.7 °F /  3.7 °C 30.16 in /  1021.2 hPa NNE 4.9 mph /  7.9 km/h 8.1 mph /  13 km/h 61 % 0.00 in /  0 mm
13:31 51.9 °F /  11.1 °C 38.9 °F /  3.8 °C 30.16 in /  1021.2 hPa North 3.9 mph /  6.3 km/h 6.9 mph /  11.1 km/h 61 % 0.00 in /  0 mm
13:36 51.9 °F /  11.1 °C 38.9 °F /  3.8 °C 30.16 in /  1021.2 hPa NNE 3.7 mph /  6 km/h 9.2 mph /  14.8 km/h 61 % 0.00 in /  0 mm
13:41 51.9 °F /  11.1 °C 38.4 °F /  3.6 °C 30.16 in /  1021.2 hPa North 5.6 mph /  9 km/h 10.4 mph /  16.7 km/h 60 % 0.00 in /  0 mm
13:46 51.9 °F /  11.1 °C 38.0 °F /  3.3 °C 30.17 in /  1021.6 hPa NNE 5.2 mph /  8.4 km/h 9.2 mph /  14.8 km/h 59 % 0.00 in /  0 mm
13:51 51.9 °F /  11.1 °C 38.0 °F /  3.3 °C 30.17 in /  1021.6 hPa North 5.4 mph /  8.7 km/h 8.1 mph /  13 km/h 59 % 0.00 in /  0 mm
14:01 51.9 °F /  11.1 °C 38.4 °F /  3.6 °C 30.17 in /  1021.6 hPa NW 3.0 mph /  4.8 km/h 4.6 mph /  7.4 km/h 60 % 0.00 in /  0 mm
14:06 51.9 °F /  11.1 °C 38.4 °F /  3.6 °C 30.17 in /  1021.6 hPa NNW 2.7 mph /  4.3 km/h 5.8 mph /  9.3 km/h 60 % 0.00 in /  0 mm
14:11 51.8 °F /  11 °C 37.5 °F /  3.1 °C 30.17 in /  1021.6 hPa NNE 4.1 mph /  6.6 km/h 5.8 mph /  9.3 km/h 58 % 0.00 in /  0 mm
14:16 51.5 °F /  10.8 °C 38.5 °F /  3.6 °C 30.17 in /  1021.6 hPa NNE 3.5 mph /  5.6 km/h 6.9 mph /  11.1 km/h 61 % 0.00 in /  0 mm
14:21 51.4 °F /  10.8 °C 38.8 °F /  3.8 °C 30.17 in /  1021.6 hPa North 5.5 mph /  8.9 km/h 9.2 mph /  14.8 km/h 62 % 0.00 in /  0 mm
14:26 51.3 °F /  10.7 °C 37.9 °F /  3.3 °C 30.17 in /  1021.6 hPa NNW 6.3 mph /  10.1 km/h 11.5 mph /  18.5 km/h 60 % 0.00 in /  0 mm
14:36 50.8 °F /  10.4 °C 37.4 °F /  3 °C 30.17 in /  1021.6 hPa NNW 6.3 mph /  10.1 km/h 10.4 mph /  16.7 km/h 60 % 0.00 in /  0 mm
14:46 50.4 °F /  10.2 °C 37.0 °F /  2.8 °C 30.17 in /  1021.6 hPa NNE 5.2 mph /  8.4 km/h 8.1 mph /  13 km/h 60 % 0.00 in /  0 mm
14:51 50.3 °F /  10.2 °C 36.9 °F /  2.7 °C 30.17 in /  1021.6 hPa NNW 5.7 mph /  9.2 km/h 9.2 mph /  14.8 km/h 60 % 0.00 in /  0 mm
14:56 50.1 °F /  10.1 °C 36.7 °F /  2.6 °C 30.17 in /  1021.6 hPa North 5.6 mph /  9 km/h 10.4 mph /  16.7 km/h 60 % 0.00 in /  0 mm
15:01 50.0 °F /  10 °C 37.1 °F /  2.8 °C 30.17 in /  1021.6 hPa NNE 6.7 mph /  10.8 km/h 8.1 mph /  13 km/h 61 % 0.00 in /  0 mm
15:11 49.7 °F /  9.8 °C 37.6 °F /  3.1 °C 30.18 in /  1021.9 hPa North 3.2 mph /  5.1 km/h 6.9 mph /  11.1 km/h 63 % 0.00 in /  0 mm
15:26 49.3 °F /  9.6 °C 38.0 °F /  3.3 °C 30.18 in /  1021.9 hPa NNW 6.4 mph /  10.3 km/h 8.0 mph /  12.9 km/h 65 % 0.00 in /  0 mm
15:31 49.1 °F /  9.5 °C 37.4 °F /  3 °C 30.18 in /  1021.9 hPa North 7.2 mph /  11.6 km/h 9.2 mph /  14.8 km/h 64 % 0.00 in /  0 mm
15:41 48.9 °F /  9.4 °C 37.3 °F /  2.9 °C 30.18 in /  1021.9 hPa NNE 4.3 mph /  6.9 km/h 8.1 mph /  13 km/h 64 % 0.00 in /  0 mm
15:46 48.8 °F /  9.3 °C 37.6 °F /  3.1 °C 30.19 in /  1022.2 hPa North 4.8 mph /  7.7 km/h 9.2 mph /  14.8 km/h 65 % 0.00 in /  0 mm
15:57 48.5 °F /  9.2 °C 37.7 °F /  3.2 °C 30.19 in /  1022.2 hPa NE 5.9 mph /  9.5 km/h 10.4 mph /  16.7 km/h 66 % 0.00 in /  0 mm
16:07 48.2 °F /  9 °C 37.4 °F /  3 °C 30.20 in /  1022.6 hPa NNE 3.9 mph /  6.3 km/h 9.2 mph /  14.8 km/h 66 % 0.00 in /  0 mm
16:17 48.0 °F /  8.9 °C 36.8 °F /  2.7 °C 30.20 in /  1022.6 hPa NNE 5.3 mph /  8.5 km/h 8.1 mph /  13 km/h 65 % 0.00 in /  0 mm
16:22 47.9 °F /  8.8 °C 36.3 °F /  2.4 °C 30.20 in /  1022.6 hPa North 3.6 mph /  5.8 km/h 9.2 mph /  14.8 km/h 64 % 0.00 in /  0 mm
16:27 47.8 °F /  8.8 °C 36.6 °F /  2.6 °C 30.21 in /  1022.9 hPa NNE 5.2 mph /  8.4 km/h 8.1 mph /  13 km/h 65 % 0.00 in /  0 mm
16:32 47.7 °F /  8.7 °C 36.1 °F /  2.3 °C 30.21 in /  1022.9 hPa North 4.8 mph /  7.7 km/h 7.0 mph /  11.3 km/h 64 % 0.00 in /  0 mm
16:37 47.7 °F /  8.7 °C 36.1 °F /  2.3 °C 30.21 in /  1022.9 hPa North 3.9 mph /  6.3 km/h 7.0 mph /  11.3 km/h 64 % 0.00 in /  0 mm
16:48 47.7 °F /  8.7 °C 36.1 °F /  2.3 °C 30.21 in /  1022.9 hPa North 5.6 mph /  9 km/h 11.5 mph /  18.5 km/h 64 % 0.00 in /  0 mm
16:53 47.6 °F /  8.7 °C 36.0 °F /  2.2 °C 30.21 in /  1022.9 hPa NNE 7.8 mph /  12.6 km/h 12.7 mph /  20.4 km/h 64 % 0.00 in /  0 mm
17:03 47.6 °F /  8.7 °C 36.8 °F /  2.7 °C 30.22 in /  1023.2 hPa NNE 5.0 mph /  8 km/h 8.0 mph /  12.9 km/h 66 % 0.00 in /  0 mm
17:13 47.3 °F /  8.5 °C 36.1 °F /  2.3 °C 30.23 in /  1023.6 hPa NNE 5.1 mph /  8.2 km/h 9.2 mph /  14.8 km/h 65 % 0.00 in /  0 mm
17:18 47.2 °F /  8.4 °C 36.4 °F /  2.4 °C 30.23 in /  1023.6 hPa North 5.9 mph /  9.5 km/h 8.1 mph /  13 km/h 66 % 0.00 in /  0 mm
17:23 47.1 °F /  8.4 °C 36.7 °F /  2.6 °C 30.24 in /  1023.9 hPa NE 4.4 mph /  7.1 km/h 10.4 mph /  16.7 km/h 67 % 0.00 in /  0 mm
17:33 46.9 °F /  8.3 °C 36.1 °F /  2.3 °C 30.24 in /  1023.9 hPa North 5.6 mph /  9 km/h 11.5 mph /  18.5 km/h 66 % 0.00 in /  0 mm
17:39 46.8 °F /  8.2 °C 35.6 °F /  2 °C 30.24 in /  1023.9 hPa NNE 7.0 mph /  11.3 km/h 12.7 mph /  20.4 km/h 65 % 0.00 in /  0 mm
17:44 46.7 °F /  8.2 °C 35.9 °F /  2.2 °C 30.24 in /  1023.9 hPa North 8.6 mph /  13.8 km/h 10.4 mph /  16.7 km/h 66 % 0.00 in /  0 mm
17:54 46.5 °F /  8.1 °C 35.4 °F /  1.9 °C 30.24 in /  1023.9 hPa North 9.4 mph /  15.1 km/h 13.8 mph /  22.2 km/h 65 % 0.00 in /  0 mm
17:59 46.4 °F /  8 °C 35.3 °F /  1.8 °C 30.24 in /  1023.9 hPa NNE 5.1 mph /  8.2 km/h 8.1 mph /  13 km/h 65 % 0.00 in /  0 mm
18:04 46.4 °F /  8 °C 34.9 °F /  1.6 °C 30.24 in /  1023.9 hPa NNE 7.8 mph /  12.6 km/h 11.5 mph /  18.5 km/h 64 % 0.00 in /  0 mm
18:09 46.3 °F /  7.9 °C 34.8 °F /  1.6 °C 30.25 in /  1024.3 hPa NNE 5.5 mph /  8.9 km/h 12.7 mph /  20.4 km/h 64 % 0.00 in /  0 mm
18:19 46.2 °F /  7.9 °C 34.7 °F /  1.5 °C 30.25 in /  1024.3 hPa NNE 4.6 mph /  7.4 km/h 10.4 mph /  16.7 km/h 64 % 0.00 in /  0 mm
18:29 46.1 °F /  7.8 °C 35.0 °F /  1.7 °C 30.25 in /  1024.3 hPa NNE 7.2 mph /  11.6 km/h 12.0 mph /  19.3 km/h 65 % 0.00 in /  0 mm
18:39 45.9 °F /  7.7 °C 34.8 °F /  1.6 °C 30.26 in /  1024.6 hPa NNE 8.4 mph /  13.5 km/h 11.5 mph /  18.5 km/h 65 % 0.00 in /  0 mm
18:50 45.8 °F /  7.7 °C 35.1 °F /  1.7 °C 30.26 in /  1024.6 hPa North 7.1 mph /  11.4 km/h 10.4 mph /  16.7 km/h 66 % 0.00 in /  0 mm
18:55 45.7 °F /  7.6 °C 34.6 °F /  1.4 °C 30.26 in /  1024.6 hPa NNE 7.0 mph /  11.3 km/h 12.0 mph /  19.3 km/h 65 % 0.00 in /  0 mm
19:05 45.5 °F /  7.5 °C 34.4 °F /  1.3 °C 30.26 in /  1024.6 hPa NNE 7.9 mph /  12.7 km/h 11.0 mph /  17.7 km/h 65 % 0.00 in /  0 mm
19:10 45.4 °F /  7.4 °C 34.3 °F /  1.3 °C 30.26 in /  1024.6 hPa NE 8.4 mph /  13.5 km/h 11.5 mph /  18.5 km/h 65 % 0.00 in /  0 mm
19:15 45.4 °F /  7.4 °C 34.7 °F /  1.5 °C 30.26 in /  1024.6 hPa NE 5.5 mph /  8.9 km/h 8.0 mph /  12.9 km/h 66 % 0.00 in /  0 mm
19:20 45.3 °F /  7.4 °C 34.6 °F /  1.4 °C 30.26 in /  1024.6 hPa NNE 6.6 mph /  10.6 km/h 10.4 mph /  16.7 km/h 66 % 0.00 in /  0 mm
19:25 45.2 °F /  7.3 °C 34.5 °F /  1.4 °C 30.26 in /  1024.6 hPa NNE 6.9 mph /  11.1 km/h 15.0 mph /  24.1 km/h 66 % 0.00 in /  0 mm
19:30 45.1 °F /  7.3 °C 34.4 °F /  1.3 °C 30.26 in /  1024.6 hPa NNE 8.7 mph /  14 km/h 13.8 mph /  22.2 km/h 66 % 0.00 in /  0 mm
19:36 45.0 °F /  7.2 °C 34.3 °F /  1.3 °C 30.27 in /  1024.9 hPa NNE 8.0 mph /  12.9 km/h 13.0 mph /  20.9 km/h 66 % 0.00 in /  0 mm
19:41 45.0 °F /  7.2 °C 34.3 °F /  1.3 °C 30.27 in /  1024.9 hPa NNE 8.0 mph /  12.9 km/h 13.0 mph /  20.9 km/h 66 % 0.00 in /  0 mm
19:46 45.0 °F /  7.2 °C 34.3 °F /  1.3 °C 30.27 in /  1024.9 hPa NNE 8.0 mph /  12.9 km/h 13.0 mph /  20.9 km/h 66 % 0.00 in /  0 mm
19:55 44.8 °F /  7.1 °C 33.4 °F /  0.8 °C 30.27 in /  1024.9 hPa NNE 8.0 mph /  12.9 km/h 15.0 mph /  24.1 km/h 64 % 0.00 in /  0 mm
20:01 44.8 °F /  7.1 °C 33.7 °F /  0.9 °C 30.27 in /  1024.9 hPa NNE 8.6 mph /  13.8 km/h 9.2 mph /  14.8 km/h 65 % 0.00 in /  0 mm
20:11 44.7 °F /  7.1 °C 33.6 °F /  0.9 °C 30.27 in /  1024.9 hPa NNE 9.0 mph /  14.5 km/h 12.0 mph /  19.3 km/h 65 % 0.00 in /  0 mm
20:15 44.7 °F /  7.1 °C 34.0 °F /  1.1 °C 30.28 in /  1025.3 hPa NNE 8.0 mph /  12.9 km/h 12.0 mph /  19.3 km/h 66 % 0.00 in /  0 mm
20:21 44.6 °F /  7 °C 34.3 °F /  1.3 °C 30.28 in /  1025.3 hPa NNE 7.0 mph /  11.3 km/h 12.0 mph /  19.3 km/h 67 % 0.00 in /  0 mm
20:25 44.5 °F /  6.9 °C 33.8 °F /  1 °C 30.28 in /  1025.3 hPa North 5.6 mph /  9 km/h 11.5 mph /  18.5 km/h 66 % 0.00 in /  0 mm
20:30 44.5 °F /  6.9 °C 33.8 °F /  1 °C 30.28 in /  1025.3 hPa NNE 6.6 mph /  10.6 km/h 9.2 mph /  14.8 km/h 66 % 0.00 in /  0 mm
20:36 44.4 °F /  6.9 °C 33.7 °F /  0.9 °C 30.28 in /  1025.3 hPa NNE 8.0 mph /  12.9 km/h 13.0 mph /  20.9 km/h 66 % 0.00 in /  0 mm
20:40 44.4 °F /  6.9 °C 33.7 °F /  0.9 °C 30.28 in /  1025.3 hPa NNE 7.0 mph /  11.3 km/h 14.0 mph /  22.5 km/h 66 % 0.00 in /  0 mm
20:50 44.4 °F /  6.9 °C 33.7 °F /  0.9 °C 30.28 in /  1025.3 hPa NNE 7.6 mph /  12.2 km/h 12.0 mph /  19.3 km/h 66 % 0.00 in /  0 mm
20:55 44.3 °F /  6.8 °C 33.7 °F /  0.9 °C 30.28 in /  1025.3 hPa NNE 7.0 mph /  11.3 km/h 11.5 mph /  18.5 km/h 66 % 0.00 in /  0 mm
21:06 44.3 °F /  6.8 °C 33.7 °F /  0.9 °C 30.28 in /  1025.3 hPa NNE 9.0 mph /  14.5 km/h 16.0 mph /  25.7 km/h 66 % 0.00 in /  0 mm
21:10 44.3 °F /  6.8 °C 34.0 °F /  1.1 °C 30.28 in /  1025.3 hPa NNE 8.0 mph /  12.9 km/h 15.0 mph /  24.1 km/h 67 % 0.00 in /  0 mm
21:16 44.3 °F /  6.8 °C 34.0 °F /  1.1 °C 30.28 in /  1025.3 hPa NNE 10.0 mph /  16.1 km/h 16.0 mph /  25.7 km/h 67 % 0.00 in /  0 mm
21:21 44.3 °F /  6.8 °C 34.4 °F /  1.3 °C 30.28 in /  1025.3 hPa NNE 9.0 mph /  14.5 km/h 14.0 mph /  22.5 km/h 68 % 0.00 in /  0 mm
21:35 44.2 °F /  6.8 °C 34.3 °F /  1.3 °C 30.28 in /  1025.3 hPa North 7.5 mph /  12.1 km/h 12.7 mph /  20.4 km/h 68 % 0.00 in /  0 mm
21:41 44.1 °F /  6.7 °C 34.2 °F /  1.2 °C 30.29 in /  1025.6 hPa NNE 6.0 mph /  9.7 km/h 12.0 mph /  19.3 km/h 68 % 0.00 in /  0 mm
21:45 44.0 °F /  6.7 °C 34.1 °F /  1.2 °C 30.28 in /  1025.3 hPa NNE 8.0 mph /  12.9 km/h 15.0 mph /  24.1 km/h 68 % 0.00 in /  0 mm
21:55 43.8 °F /  6.6 °C 33.6 °F /  0.9 °C 30.28 in /  1025.3 hPa NNE 9.0 mph /  14.5 km/h 20.0 mph /  32.2 km/h 67 % 0.00 in /  0 mm
22:06 43.8 °F /  6.6 °C 33.9 °F /  1.1 °C 30.29 in /  1025.6 hPa NNE 7.0 mph /  11.3 km/h 11.5 mph /  18.5 km/h 68 % 0.00 in /  0 mm
22:11 43.8 °F /  6.6 °C 33.9 °F /  1.1 °C 30.29 in /  1025.6 hPa NNE 10.2 mph /  16.4 km/h 13.8 mph /  22.2 km/h 68 % 0.00 in /  0 mm
22:16 43.7 °F /  6.5 °C 33.8 °F /  1 °C 30.29 in /  1025.6 hPa NE 8.8 mph /  14.2 km/h 11.5 mph /  18.5 km/h 68 % 0.00 in /  0 mm
22:21 43.7 °F /  6.5 °C 34.2 °F /  1.2 °C 30.29 in /  1025.6 hPa NNE 9.5 mph /  15.3 km/h 15.0 mph /  24.1 km/h 69 % 0.00 in /  0 mm
22:23 43.7 °F /  6.5 °C 33.8 °F /  1 °C 30.29 in /  1025.6 hPa NNE 7.9 mph /  12.7 km/h 11.5 mph /  18.5 km/h 68 % 0.00 in /  0 mm
22:26 43.7 °F /  6.5 °C 34.2 °F /  1.2 °C 30.29 in /  1025.6 hPa NNE 9.1 mph /  14.6 km/h 11.5 mph /  18.5 km/h 69 % 0.00 in /  0 mm
22:27 43.7 °F /  6.5 °C 34.2 °F /  1.2 °C 30.29 in /  1025.6 hPa NNE 8.4 mph /  13.5 km/h 12.7 mph /  20.4 km/h 69 % 0.00 in /  0 mm
22:32 43.6 °F /  6.4 °C 34.1 °F /  1.2 °C 30.29 in /  1025.6 hPa NNE 8.6 mph /  13.8 km/h 12.7 mph /  20.4 km/h 69 % 0.00 in /  0 mm
22:42 43.5 °F /  6.4 °C 34.0 °F /  1.1 °C 30.29 in /  1025.6 hPa North 6.8 mph /  10.9 km/h 13.8 mph /  22.2 km/h 69 % 0.00 in /  0 mm
22:47 43.4 °F /  6.3 °C 33.5 °F /  0.8 °C 30.29 in /  1025.6 hPa NE 9.1 mph /  14.6 km/h 13.8 mph /  22.2 km/h 68 % 0.00 in /  0 mm
22:57 43.2 °F /  6.2 °C 33.7 °F /  0.9 °C 30.30 in /  1026 hPa NNE 10.8 mph /  17.4 km/h 16.1 mph /  25.9 km/h 69 % 0.00 in /  0 mm
23:03 43.2 °F /  6.2 °C 33.7 °F /  0.9 °C 30.30 in /  1026 hPa North 9.4 mph /  15.1 km/h 12.7 mph /  20.4 km/h 69 % 0.00 in /  0 mm
23:08 43.2 °F /  6.2 °C 33.7 °F /  0.9 °C 30.30 in /  1026 hPa NNE 8.9 mph /  14.3 km/h 12.7 mph /  20.4 km/h 69 % 0.00 in /  0 mm
23:13 43.1 °F /  6.2 °C 33.6 °F /  0.9 °C 30.30 in /  1026 hPa NE 6.0 mph /  9.7 km/h 11.5 mph /  18.5 km/h 69 % 0.00 in /  0 mm
23:23 43.0 °F /  6.1 °C 33.9 °F /  1.1 °C 30.31 in /  1026.3 hPa NNE 8.7 mph /  14 km/h 11.5 mph /  18.5 km/h 70 % 0.00 in /  0 mm
23:28 42.9 °F /  6.1 °C 33.8 °F /  1 °C 30.31 in /  1026.3 hPa NNW 6.6 mph /  10.6 km/h 9.2 mph /  14.8 km/h 70 % 0.00 in /  0 mm
23:33 42.8 °F /  6 °C 33.7 °F /  0.9 °C 30.31 in /  1026.3 hPa NNE 6.0 mph /  9.7 km/h 10.4 mph /  16.7 km/h 70 % 0.00 in /  0 mm
23:39 42.7 °F /  5.9 °C 33.9 °F /  1.1 °C 30.31 in /  1026.3 hPa NNE 6.7 mph /  10.8 km/h 11.5 mph /  18.5 km/h 71 % 0.00 in /  0 mm
23:44 42.6 °F /  5.9 °C 33.5 °F /  0.8 °C 30.30 in /  1026 hPa NNE 5.8 mph /  9.3 km/h 13.8 mph /  22.2 km/h 70 % 0.00 in /  0 mm
23:49 42.5 °F /  5.8 °C 33.8 °F /  1 °C 30.30 in /  1026 hPa NE 4.8 mph /  7.7 km/h 11.0 mph /  17.7 km/h 71 % 0.00 in /  0 mm
23:54 42.4 °F /  5.8 °C 33.7 °F /  0.9 °C 30.29 in /  1025.6 hPa NE 9.0 mph /  14.5 km/h 13.8 mph /  22.2 km/h 71 % 0.00 in /  0 mm
23:59 42.3 °F /  5.7 °C 33.2 °F /  0.7 °C 30.29 in /  1025.6 hPa NNE 6.0 mph /  9.7 km/h 9.2 mph /  14.8 km/h 70 % 0.00 in /  0 mm
Crab Meadow Weather
Compliments of Weather Underground - 2.5 mb

Script developed by  Jim McMurry - jmcmurry@mwt.net Adapted for the template by  Wim van der Kuil - Leuven-Template.eu

Weather Terms: Rain/Showers - Rain is a nearly steady and uniform fall of precipitation over an area. Showers are intermittent and/or scattered convective rainfall of varying intensity.